Time;durP1;ratioP1;P1;durP2;ratioP2;P2;SDS_P1;SDS_P2;PMS_P1;PMS_P2;Temp;Humidity;BMP_temperature;BMP_pressure;BME280_temperature;BME280_humidity;BME280_pressure;Samples;Min_cycle;Max_cycle;Signal;HPM_P1;HPM_P2
2023/06/29 02:13:05;;;;;;;;;36.33;29.33;;;;;;;;6464265;46;52164;-50
2023/06/29 02:19:09;;;;;;;;;33.00;30.67;;;;;;;;6500267;31;8926;-53
2023/06/29 02:25:14;;;;;;;;;33.33;32.00;;;;;;;;6500737;38;8844;-53
2023/06/29 02:31:20;;;;;;;;;32.67;29.67;;;;;;;;6499185;46;9007;-54
2023/06/29 02:37:23;;;;;;;;;36.67;33.33;;;;;;;;6498318;38;8887;-52
2023/06/29 02:43:25;;;;;;;;;39.00;34.00;;;;;;;;6492968;31;8905;-54
2023/06/29 02:49:28;;;;;;;;;39.00;36.00;;;;;;;;6491397;39;9534;-50
2023/06/29 02:55:31;;;;;;;;;37.33;35.00;;;;;;;;6491596;39;8887;-52
2023/06/29 03:01:36;;;;;;;;;40.67;36.33;;;;;;;;6490909;39;8890;-50
2023/06/29 03:07:39;;;;;;;;;34.67;32.00;;;;;;;;6489128;46;8902;-53
2023/06/29 03:13:41;;;;;;;;;40.67;38.67;;;;;;;;6490981;46;8868;-51
2023/06/29 03:19:44;;;;;;;;;44.00;37.67;;;;;;;;6491134;39;8878;-51
2023/06/29 03:25:48;;;;;;;;;44.67;38.33;;;;;;;;6490986;39;8818;-52
2023/06/29 03:31:50;;;;;;;;;43.00;36.67;;;;;;;;6490179;31;8870;-50
2023/06/29 03:37:52;;;;;;;;;37.00;34.33;;;;;;;;6490718;39;8858;-52
2023/06/29 03:43:55;;;;;;;;;46.00;39.00;;;;;;;;6491796;31;8933;-52
2023/06/29 03:49:59;;;;;;;;;36.00;33.67;;;;;;;;6490527;31;9626;-51
2023/06/29 03:56:01;;;;;;;;;42.67;38.33;;;;;;;;6491033;46;8878;-50
2023/06/29 04:02:03;;;;;;;;;44.33;37.00;;;;;;;;6473464;39;9020;-55
2023/06/29 04:08:06;;;;;;;;;41.00;35.67;;;;;;;;6490150;39;8917;-55
2023/06/29 04:14:10;;;;;;;;;32.67;32.67;;;;;;;;6490749;39;9469;-53
2023/06/29 04:20:12;;;;;;;;;33.67;31.00;;;;;;;;6490611;46;9005;-53
2023/06/29 04:26:15;;;;;;;;;34.00;31.33;;;;;;;;6489980;39;8883;-54
2023/06/29 04:32:17;;;;;;;;;36.33;31.67;;;;;;;;6489409;46;8929;-55
2023/06/29 04:38:25;;;;;;;;;41.33;37.33;;;;;;;;6490071;39;8886;-55
2023/06/29 04:44:34;;;;;;;;;42.67;37.33;;;;;;;;6309522;39;10001064;-55
2023/06/29 04:50:37;;;;;;;;;38.33;36.33;;;;;;;;6490961;39;12311;-53
2023/06/29 04:56:40;;;;;;;;;39.67;33.00;;;;;;;;6488730;46;8866;-55
2023/06/29 05:02:43;;;;;;;;;43.00;37.00;;;;;;;;6490197;39;8883;-55
2023/06/29 05:08:45;;;;;;;;;31.00;29.67;;;;;;;;6487888;39;8946;-56
2023/06/29 05:14:48;;;;;;;;;41.67;35.00;;;;;;;;6487189;46;8937;-55
2023/06/29 05:20:52;;;;;;;;;33.00;30.00;;;;;;;;6489276;46;8843;-55
2023/06/29 05:26:55;;;;;;;;;35.33;32.67;;;;;;;;6488473;39;8961;-55
2023/06/29 05:32:58;;;;;;;;;32.33;29.67;;;;;;;;6487779;39;8887;-54
2023/06/29 05:39:00;;;;;;;;;39.00;30.33;;;;;;;;6488024;31;8894;-54
2023/06/29 05:45:03;;;;;;;;;36.00;34.33;;;;;;;;6488561;31;8899;-57
2023/06/29 05:51:06;;;;;;;;;32.67;28.00;;;;;;;;6488445;39;8858;-54
2023/06/29 05:57:09;;;;;;;;;36.33;29.67;;;;;;;;6488256;39;8884;-54
2023/06/29 06:03:12;;;;;;;;;30.67;28.33;;;;;;;;6486514;39;8989;-52
2023/06/29 06:09:15;;;;;;;;;32.67;29.67;;;;;;;;6486598;31;8939;-57
2023/06/29 06:15:17;;;;;;;;;32.00;29.00;;;;;;;;6487652;31;8878;-55
2023/06/29 06:21:19;;;;;;;;;29.00;27.33;;;;;;;;6490883;39;8922;-56
2023/06/29 06:27:22;;;;;;;;;32.33;28.33;;;;;;;;6489866;39;8870;-54
2023/06/29 06:33:30;;;;;;;;;29.00;25.00;;;;;;;;6489775;46;8899;-56
2023/06/29 06:39:33;;;;;;;;;19.00;17.75;;;;;;;;6488435;39;8888;-55
2023/06/29 06:45:37;;;;;;;;;20.75;19.75;;;;;;;;6489624;39;8918;-54
2023/06/29 06:51:42;;;;;;;;;25.75;21.75;;;;;;;;6491080;31;8918;-55
2023/06/29 06:57:44;;;;;;;;;20.50;20.00;;;;;;;;6489526;39;8871;-61
2023/06/29 07:03:47;;;;;;;;;23.75;21.50;;;;;;;;6488181;39;8910;-58
2023/06/29 07:09:49;;;;;;;;;21.75;20.00;;;;;;;;6488863;39;9082;-56
2023/06/29 07:15:52;;;;;;;;;23.75;22.50;;;;;;;;6489443;39;9967;-57
2023/06/29 07:21:55;;;;;;;;;25.25;23.50;;;;;;;;6490010;31;9530;-56
2023/06/29 07:28:01;;;;;;;;;19.25;19.25;;;;;;;;6472789;46;8965;-56
2023/06/29 07:34:04;;;;;;;;;23.00;22.00;;;;;;;;6487926;39;9510;-54
2023/06/29 07:40:10;;;;;;;;;23.25;23.25;;;;;;;;6487590;46;8865;-60
2023/06/29 07:46:12;;;;;;;;;24.25;24.25;;;;;;;;6488498;39;8883;-55
2023/06/29 07:52:18;;;;;;;;;21.25;20.25;;;;;;;;6489130;36;9469;-55
2023/06/29 07:58:21;;;;;;;;;21.00;18.50;;;;;;;;6487446;46;8987;-57
2023/06/29 08:04:26;;;;;;;;;31.00;28.75;;;;;;;;6488794;39;8909;-56
2023/06/29 08:10:31;;;;;;;;;23.25;23.25;;;;;;;;6487913;46;8970;-56
2023/06/29 08:16:33;;;;;;;;;30.25;27.00;;;;;;;;6487253;46;8865;-56
2023/06/29 08:22:36;;;;;;;;;19.50;18.00;;;;;;;;6488050;39;8870;-58
2023/06/29 08:28:39;;;;;;;;;24.25;22.50;;;;;;;;6487141;39;9500;-56
2023/06/29 08:34:41;;;;;;;;;18.25;15.25;;;;;;;;6487758;31;8890;-55
2023/06/29 08:40:49;;;;;;;;;12.25;12.25;;;;;;;;6488197;39;9552;-57
2023/06/29 08:47:11;;;;;;;;;15.75;13.50;;;;;;;;6486661;39;8921;-56
2023/06/29 08:53:15;;;;;;;;;16.33;16.00;;;;;;;;6488056;39;9339;-57
2023/06/29 08:59:18;;;;;;;;;13.25;12.25;;;;;;;;6488313;31;8854;-56
2023/06/29 09:05:21;;;;;;;;;13.50;12.50;;;;;;;;6489720;31;8870;-56
2023/06/29 09:11:24;;;;;;;;;11.75;11.00;;;;;;;;6487063;46;8863;-56
2023/06/29 09:17:33;;;;;;;;;12.00;12.00;;;;;;;;6487202;39;8915;-56
2023/06/29 09:23:43;;;;;;;;;13.75;13.75;;;;;;;;6488314;31;9536;-57
2023/06/29 09:29:52;;;;;;;;;10.25;10.00;;;;;;;;6485749;39;9019;-56
2023/06/29 09:36:04;;;;;;;;;16.50;14.00;;;;;;;;6488080;39;9447;-55
2023/06/29 09:42:09;;;;;;;;;10.00;10.00;;;;;;;;6486816;47;9001;-57
2023/06/29 09:48:14;;;;;;;;;13.50;13.25;;;;;;;;6485696;39;9486;-56
2023/06/29 09:54:20;;;;;;;;;8.00;8.00;;;;;;;;6487751;31;8917;-56
2023/06/29 10:00:22;;;;;;;;;10.00;9.25;;;;;;;;6488020;31;9081;-56
2023/06/29 10:06:53;;;;;;;;;8.00;7.00;;;;;;;;6489697;39;9007;-55
2023/06/29 10:12:59;;;;;;;;;9.50;9.25;;;;;;;;6489929;31;8870;-55
2023/06/29 10:19:16;;;;;;;;;6.75;6.75;;;;;;;;6489741;39;8826;-56
2023/06/29 10:25:22;;;;;;;;;8.00;8.00;;;;;;;;6489715;39;8838;-54
2023/06/29 10:31:34;;;;;;;;;5.75;5.00;;;;;;;;6489100;31;8909;-59
2023/06/29 10:37:43;;;;;;;;;6.50;6.50;;;;;;;;6491187;36;9478;-59
2023/06/29 10:43:59;;;;;;;;;7.25;6.75;;;;;;;;6487192;39;8958;-59
2023/06/29 10:50:10;;;;;;;;;10.25;9.00;;;;;;;;6489807;46;8905;-59
2023/06/29 10:56:32;;;;;;;;;7.75;7.50;;;;;;;;6487944;39;8850;-61
2023/06/29 11:02:34;;;;;;;;;15.75;14.50;;;;;;;;6488863;31;8974;-60
2023/06/29 11:08:38;;;;;;;;;8.00;8.00;;;;;;;;6488129;31;8948;-59
2023/06/29 11:14:43;;;;;;;;;7.00;7.00;;;;;;;;6487693;39;8863;-60
2023/06/29 11:20:45;;;;;;;;;9.00;8.75;;;;;;;;6488705;46;8984;-59
2023/06/29 11:26:49;;;;;;;;;8.50;8.50;;;;;;;;6487562;46;8882;-61
2023/06/29 11:32:53;;;;;;;;;7.75;7.25;;;;;;;;6489207;39;8905;-60
2023/06/29 11:39:04;;;;;;;;;9.25;8.25;;;;;;;;6488670;31;8976;-60
2023/06/29 11:45:09;;;;;;;;;9.00;9.00;;;;;;;;6489326;39;8977;-58
2023/06/29 11:51:16;;;;;;;;;8.50;8.50;;;;;;;;6490131;39;8953;-61
2023/06/29 11:57:19;;;;;;;;;15.75;14.25;;;;;;;;6487595;46;8921;-59
2023/06/29 12:03:23;;;;;;;;;8.50;8.50;;;;;;;;6488660;46;8906;-60
2023/06/29 12:09:34;;;;;;;;;17.75;16.25;;;;;;;;6489073;31;8834;-59
2023/06/29 12:15:37;;;;;;;;;8.75;6.75;;;;;;;;6487225;39;9060;-57
2023/06/29 12:21:40;;;;;;;;;6.25;6.25;;;;;;;;6488497;46;8858;-61
2023/06/29 12:27:45;;;;;;;;;6.00;6.00;;;;;;;;6487321;31;8870;-59
2023/06/29 12:33:50;;;;;;;;;6.75;6.25;;;;;;;;6489249;31;9515;-59
2023/06/29 12:39:54;;;;;;;;;9.25;8.50;;;;;;;;6488446;46;8870;-59
2023/06/29 12:45:57;;;;;;;;;9.25;9.00;;;;;;;;6488112;46;8993;-59
2023/06/29 12:51:59;;;;;;;;;10.25;10.25;;;;;;;;6488391;31;9025;-59
2023/06/29 12:58:02;;;;;;;;;15.75;15.75;;;;;;;;6487361;39;9010;-58
2023/06/29 13:04:06;;;;;;;;;33.75;31.50;;;;;;;;6488394;39;9048;-59
2023/06/29 13:10:11;;;;;;;;;8.00;8.00;;;;;;;;6487403;39;9761;-60
2023/06/29 13:16:15;;;;;;;;;7.50;7.50;;;;;;;;6487663;39;8870;-58
2023/06/29 13:22:18;;;;;;;;;7.67;6.00;;;;;;;;6487378;31;8882;-58
2023/06/29 13:28:21;;;;;;;;;7.00;6.75;;;;;;;;6486808;39;9004;-59
2023/06/29 13:34:28;;;;;;;;;8.25;8.00;;;;;;;;6533904;36;9021;-58
2023/06/29 13:40:32;;;;;;;;;6.00;6.00;;;;;;;;6487809;39;8882;-57
2023/06/29 13:46:35;;;;;;;;;5.50;5.50;;;;;;;;6486833;47;8985;-60
2023/06/29 13:52:37;;;;;;;;;7.00;7.00;;;;;;;;6488586;31;9560;-59
2023/06/29 13:58:40;;;;;;;;;7.75;6.25;;;;;;;;6487787;39;8933;-60
2023/06/29 14:04:43;;;;;;;;;5.75;5.75;;;;;;;;6486189;39;8914;-58
2023/06/29 14:10:46;;;;;;;;;7.25;7.25;;;;;;;;6486925;39;8900;-59
2023/06/29 14:16:51;;;;;;;;;4.50;4.00;;;;;;;;6486634;31;9066;-61
2023/06/29 14:22:54;;;;;;;;;4.00;4.00;;;;;;;;6487028;31;8909;-59
2023/06/29 14:28:56;;;;;;;;;4.25;4.00;;;;;;;;6485813;47;8842;-60
2023/06/29 14:35:00;;;;;;;;;5.25;5.00;;;;;;;;6487124;47;8909;-58
2023/06/29 14:41:02;;;;;;;;;5.50;4.50;;;;;;;;6487730;46;8949;-58
2023/06/29 14:47:05;;;;;;;;;7.75;6.50;;;;;;;;6487758;31;8886;-59
2023/06/29 14:53:07;;;;;;;;;3.25;3.25;;;;;;;;6488298;39;8882;-58
2023/06/29 14:59:11;;;;;;;;;5.25;5.25;;;;;;;;6484939;39;8922;-58
2023/06/29 15:05:13;;;;;;;;;5.50;4.75;;;;;;;;6488290;46;8918;-60
2023/06/29 15:11:16;;;;;;;;;7.75;7.25;;;;;;;;6487851;46;8874;-59
2023/06/29 15:17:19;;;;;;;;;5.00;5.00;;;;;;;;6489034;39;9564;-59
2023/06/29 15:23:23;;;;;;;;;4.25;4.25;;;;;;;;6489612;36;8854;-59
2023/06/29 15:29:26;;;;;;;;;4.50;4.50;;;;;;;;6488900;39;8841;-64
2023/06/29 15:35:29;;;;;;;;;3.50;3.50;;;;;;;;6487994;39;9003;-59
2023/06/29 15:41:32;;;;;;;;;5.25;5.25;;;;;;;;6486375;46;9008;-59
2023/06/29 15:47:34;;;;;;;;;5.75;5.75;;;;;;;;6485850;46;8849;-59
2023/06/29 15:53:38;;;;;;;;;4.00;4.00;;;;;;;;6487877;39;9037;-55
2023/06/29 15:59:40;;;;;;;;;5.75;3.75;;;;;;;;6486831;39;8963;-54
2023/06/29 16:05:44;;;;;;;;;5.00;5.00;;;;;;;;6487327;46;8924;-55
2023/06/29 16:11:47;;;;;;;;;5.00;5.00;;;;;;;;6488135;39;8995;-55
2023/06/29 16:17:49;;;;;;;;;4.50;4.50;;;;;;;;6487218;39;9637;-56
2023/06/29 16:23:52;;;;;;;;;7.00;6.00;;;;;;;;6487984;46;8930;-55
2023/06/29 16:29:56;;;;;;;;;5.00;5.00;;;;;;;;6488179;39;8980;-56
2023/06/29 16:35:58;;;;;;;;;4.00;4.00;;;;;;;;6487298;46;8940;-55
2023/06/29 16:42:01;;;;;;;;;6.00;4.50;;;;;;;;6488379;39;8880;-55
2023/06/29 16:48:03;;;;;;;;;5.25;5.25;;;;;;;;6487500;39;8927;-55
2023/06/29 16:54:06;;;;;;;;;5.50;5.50;;;;;;;;6488212;39;9040;-56
2023/06/29 17:00:10;;;;;;;;;6.00;6.00;;;;;;;;6487583;39;8923;-56
2023/06/29 17:06:13;;;;;;;;;6.25;6.25;;;;;;;;6487105;31;8917;-54
2023/06/29 17:12:16;;;;;;;;;6.25;5.50;;;;;;;;6484890;46;8937;-54
2023/06/29 17:18:19;;;;;;;;;8.50;7.25;;;;;;;;6488305;39;8919;-55
2023/06/29 17:24:21;;;;;;;;;5.50;5.50;;;;;;;;6487619;46;8909;-54
2023/06/29 17:30:24;;;;;;;;;8.75;7.00;;;;;;;;6487553;47;9055;-56
2023/06/29 17:36:29;;;;;;;;;8.25;8.25;;;;;;;;6486999;47;8907;-52
2023/06/29 17:42:31;;;;;;;;;7.50;7.50;;;;;;;;6487217;39;8927;-55
2023/06/29 17:48:34;;;;;;;;;6.50;6.50;;;;;;;;6487685;39;9024;-55
2023/06/29 17:54:37;;;;;;;;;8.25;7.75;;;;;;;;6488112;31;9199;-56
2023/06/29 18:00:40;;;;;;;;;2.50;2.50;;;;;;;;6487900;39;9007;-55
2023/06/29 18:06:42;;;;;;;;;7.50;7.00;;;;;;;;6486558;39;8920;-55
2023/06/29 18:12:46;;;;;;;;;6.25;6.25;;;;;;;;6486931;39;9508;-56
2023/06/29 18:18:50;;;;;;;;;8.50;8.50;;;;;;;;6488520;39;8885;-54
2023/06/29 18:24:52;;;;;;;;;10.00;8.75;;;;;;;;6488271;46;8939;-54
2023/06/29 18:30:55;;;;;;;;;8.75;8.75;;;;;;;;6488950;46;8905;-55
2023/06/29 18:36:57;;;;;;;;;8.00;8.00;;;;;;;;6489078;39;8912;-55
2023/06/29 18:43:00;;;;;;;;;8.25;8.25;;;;;;;;6487749;39;8876;-55
2023/06/29 18:49:04;;;;;;;;;12.00;11.25;;;;;;;;6488261;31;8939;-55
2023/06/29 18:55:06;;;;;;;;;8.75;8.75;;;;;;;;6488632;39;9016;-55
2023/06/29 19:01:09;;;;;;;;;8.75;8.75;;;;;;;;6488616;46;8932;-56
2023/06/29 19:07:14;;;;;;;;;8.75;8.75;;;;;;;;6489647;31;8940;-55
2023/06/29 19:13:17;;;;;;;;;11.00;10.75;;;;;;;;6488316;31;8853;-54
2023/06/29 19:19:19;;;;;;;;;12.25;11.75;;;;;;;;6488668;39;9604;-55
2023/06/29 19:25:23;;;;;;;;;12.75;12.00;;;;;;;;6486996;46;8935;-54
2023/06/29 19:31:26;;;;;;;;;12.00;11.50;;;;;;;;6488233;46;9004;-56
2023/06/29 19:37:29;;;;;;;;;14.33;12.67;;;;;;;;6489329;39;8865;-53
2023/06/29 19:43:33;;;;;;;;;13.33;13.33;;;;;;;;6489045;39;8845;-54
2023/06/29 19:49:36;;;;;;;;;11.00;11.00;;;;;;;;6488078;39;8901;-56
2023/06/29 19:55:39;;;;;;;;;14.00;14.00;;;;;;;;6488557;31;8877;-55
2023/06/29 20:01:44;;;;;;;;;12.00;12.00;;;;;;;;6488094;39;9043;-55
2023/06/29 20:07:46;;;;;;;;;14.00;11.25;;;;;;;;6488512;39;8909;-55
2023/06/29 20:13:49;;;;;;;;;8.00;8.00;;;;;;;;6487789;39;8976;-54
2023/06/29 20:19:54;;;;;;;;;11.75;10.50;;;;;;;;6488774;31;9595;-53
2023/06/29 20:25:56;;;;;;;;;11.50;10.25;;;;;;;;6488498;31;8980;-53
2023/06/29 20:31:59;;;;;;;;;9.33;9.33;;;;;;;;6488122;39;9072;-55
2023/06/29 20:38:01;;;;;;;;;8.50;8.50;;;;;;;;6488171;46;8931;-52
2023/06/29 20:44:11;;;;;;;;;6.00;6.00;;;;;;;;6488360;39;8868;-54
2023/06/29 20:50:14;;;;;;;;;12.00;10.67;;;;;;;;6487711;46;8889;-54
2023/06/29 20:56:16;;;;;;;;;9.00;7.00;;;;;;;;6487534;46;8905;-55
2023/06/29 21:02:21;;;;;;;;;8.00;7.00;;;;;;;;6487636;39;8963;-54
2023/06/29 21:08:24;;;;;;;;;9.00;8.67;;;;;;;;6487674;31;8952;-53
2023/06/29 21:14:27;;;;;;;;;8.00;8.00;;;;;;;;6486674;39;9005;-53
2023/06/29 21:20:30;;;;;;;;;8.00;7.00;;;;;;;;6487491;31;8893;-55
2023/06/29 21:26:32;;;;;;;;;9.00;9.00;;;;;;;;6486886;46;8866;-55
2023/06/29 21:32:35;;;;;;;;;7.33;7.33;;;;;;;;6487495;39;8881;-54
2023/06/29 21:38:37;;;;;;;;;6.33;6.33;;;;;;;;6486947;31;8861;-55
2023/06/29 21:44:51;;;;;;;;;8.67;8.33;;;;;;;;6487585;46;8899;-55
2023/06/29 21:50:53;;;;;;;;;9.33;8.33;;;;;;;;6489154;46;8886;-52
2023/06/29 21:56:55;;;;;;;;;10.67;10.67;;;;;;;;6488254;46;8971;-55
2023/06/29 22:02:58;;;;;;;;;10.00;9.33;;;;;;;;6488939;39;9027;-54
2023/06/29 22:09:02;;;;;;;;;9.67;8.33;;;;;;;;6488216;46;8986;-55
2023/06/29 22:15:07;;;;;;;;;8.33;8.33;;;;;;;;6488776;46;8862;-53
2023/06/29 22:21:12;;;;;;;;;9.00;9.00;;;;;;;;6489021;46;8998;-54
2023/06/29 22:27:14;;;;;;;;;11.00;11.00;;;;;;;;6488888;39;8937;-59
2023/06/29 22:33:17;;;;;;;;;5.33;5.00;;;;;;;;6488751;46;8927;-54
2023/06/29 22:39:20;;;;;;;;;11.33;10.00;;;;;;;;6489065;39;9507;-54
2023/06/29 22:45:22;;;;;;;;;9.33;8.67;;;;;;;;6488083;36;9444;-54
2023/06/29 22:51:24;;;;;;;;;8.67;8.67;;;;;;;;6489199;46;8908;-53
2023/06/29 22:57:27;;;;;;;;;9.33;8.33;;;;;;;;6488565;39;8903;-53
2023/06/29 23:03:29;;;;;;;;;7.00;6.50;;;;;;;;6488249;46;9005;-53
2023/06/29 23:09:32;;;;;;;;;9.00;9.00;;;;;;;;6487809;39;8902;-55
2023/06/29 23:15:41;;;;;;;;;7.33;7.33;;;;;;;;6488956;31;8921;-54
2023/06/29 23:21:45;;;;;;;;;7.67;7.67;;;;;;;;6489689;31;8856;-54
2023/06/29 23:27:47;;;;;;;;;13.00;10.33;;;;;;;;6488778;31;8880;-54
2023/06/29 23:33:51;;;;;;;;;11.00;9.67;;;;;;;;6489084;39;8860;-54
2023/06/29 23:39:53;;;;;;;;;13.00;12.00;;;;;;;;6488670;39;8876;-53
2023/06/29 23:45:58;;;;;;;;;10.33;10.33;;;;;;;;6487555;39;8911;-54
2023/06/29 23:52:02;;;;;;;;;13.33;12.00;;;;;;;;6488277;46;8861;-55
2023/06/29 23:58:04;;;;;;;;;12.00;12.00;;;;;;;;6487506;31;8903;-54
